Logo AVAMET
Benvolgut visitant, si us plau, ingressa Recuperar contrasenya

Inforatge Pedreguer

Dades diàries. Acumulats / Últims 30 dies disponibles

Data Temperatura (°C) Humitat rel. (%) Pressió rel. (hPa) Vent (km/h) Precipitació
Mínima Mitjana Màxima Amplitud
tèrmica
Mínima Mitjana Màxima Mínima Mitjana Màxima Predom. Mitjana Ràfega
màxima
Total
(mm)
Índex-n
Mínima Mitjana Màxima Mínima Mitjana Màxima n
0 a 1
P0 max
mm 5'
Dades mensuals acumulades fins l'últim dia disponible
05/2019 10,1 14,9 21,3 18,9 19,4 23,4 30,2 20,1 26 67 93 1.003 1.016 1.026   7,0 68,5 4,2
Dades anuals acumulades fins l'últim dia disponible
2019 4,7 10,9 21,3 14,7 10,8 18,9 30,2 25,5 21 64 98 995 1.020 1.037   6,8 74,1 350,6
Últims 30 dies disponibles
24-05-2019 15,4     17,6     19,7 4,3 62 83 90 1.014 1.016 1.017 SSO 3,2 20,9 1,8
23-05-2019 16,0     22,0     28,3 12,3 27 50 73 1.015 1.018 1.020 S 6,6 37,0 0,0
22-05-2019 14,5     19,8     25,2 10,7 41 70 89 1.018 1.019 1.020 SSE 6,2 37,0 0,0
21-05-2019 15,7     18,2     22,5 6,8 62 79 90 1.015 1.017 1.019 S 6,0 40,7 0,0
20-05-2019 14,3     18,3     22,7 8,4 49 63 74 1.013 1.014 1.015 SSE 6,7 31,5 0,0
19-05-2019 12,7     17,7     22,5 9,8 36 68 88 1.011 1.012 1.014 S 5,4 32,2 0,0
18-05-2019 14,8     17,3     20,1 5,3 49 60 74 1.010 1.011 1.012 SSE 3,4 24,1 1,2 0,26 0,60
17-05-2019 15,8     19,5     24,4 8,6 32 54 82 1.003 1.006 1.011 SO 14,4 68,5 0,0
16-05-2019 15,7     18,3     21,7 6,0 61 76 88 1.006 1.012 1.017 S 10,7 51,9 0,0
15-05-2019 14,7     18,5     22,6 7,9 55 69 85 1.013 1.014 1.017 S 5,7 29,6 0,0
14-05-2019 13,1     19,1     24,6 11,5 33 58 85 1.015 1.020 1.023 S 7,9 40,7 0,0
13-05-2019 16,0     19,1     24,1 8,1 52 69 86 1.020 1.021 1.023 SSE 8,0 32,2 0,0
12-05-2019 15,6     19,3     23,3 7,7 57 74 90 1.021 1.024 1.026 SSE 5,9 35,4 0,0
11-05-2019 18,1     21,4     26,7 8,6 43 67 81 1.016 1.020 1.025 SO 6,4 27,8 0,0
10-05-2019 21,3     25,5     29,9 8,6 37 52 64 1.013 1.015 1.016 S 6,8 33,9 0,0
09-05-2019 21,3     24,1     27,6 6,3 45 53 63 1.013 1.014 1.016 OSO 10,6 42,6 0,0
08-05-2019 14,2     22,6     30,2 16,0 35 62 93 1.011 1.013 1.016 SSO 6,7 37,0 0,0
07-05-2019 15,2     18,9     24,1 8,9 57 77 91 1.015 1.018 1.021 SSE 6,2 37,0 0,0
06-05-2019 11,7     16,0     21,6 9,9 64 80 90 1.018 1.019 1.021 S 5,7 35,4 0,0
05-05-2019 13,7     16,2     19,4 5,7 42 65 85 1.013 1.016 1.019 S 8,1 42,6 0,0
04-05-2019 10,1     15,5     20,0 9,9 47 68 89 1.012 1.014 1.015 SSO 7,1 37,0 0,2
03-05-2019 11,6     14,9     20,1 8,5 55 78 89 1.012 1.014 1.016 S 6,0 33,9 1,0
02-05-2019 14,1     16,2     19,4 5,3 62 77 89 1.015 1.016 1.018 SSO 5,1 27,8 0,0
01-05-2019 13,0     17,1     21,6 8,6 26 66 91 1.014 1.016 1.018 SSE 8,7 48,3 0,0
30-04-2019 13,6     16,9     20,7 7,1 57 76 87 1.017 1.018 1.020 SSE 8,9 43,5 0,0
29-04-2019 12,6     16,2     20,1 7,5 63 80 92 1.018 1.020 1.022 SE 8,0 40,7 0,0
28-04-2019 12,7     17,7     23,2 10,5 37 60 80 1.020 1.023 1.026 SSE 5,6 35,4 0,0
27-04-2019 12,8     17,6     22,9 10,1 40 56 78 1.025 1.026 1.028 S 6,0 27,8 0,0
26-04-2019 12,0     17,0     21,7 9,7 36 51 68 1.020 1.023 1.026 SSO 9,0 35,4 0,0
25-04-2019 13,7     18,1     20,8 7,1 48 62 85 1.011 1.014 1.019 SSE 8,6 42,6 0,0
Últims 13 mesos disponibles
04/2019 9,8 12,1 13,9 15,5 14,0 19,5 27,9 18,1 40 69 93 1.001 1.014 1.026 S 8,2 66,7 264,0
03/2019 7,9 10,7 16,1 14,9 11,2 19,2 27,4 19,5 37 60 91 1.012 1.024 1.031 SSE 5,9 56,3 77,8
02/2019 6,3 8,9 12,1 12,8 12,2 17,1 22,6 16,3 36 63 84 997 1.026 1.035 S 6,0 74,1 0,0
01/2019 4,7 8,6 13,3 12,0 10,8 16,0 20,9 16,2 40 59 84 1.004 1.020 1.031 S 6,9 66,7 4,6
12/2018 7,1 10,2 14,1 14,0 12,3 18,4 24,1 17,0 51 69 90 1.010 1.026 1.032 SSE 3,7 58,0 37,4
11/2018 8,4 12,6 16,2 15,3 14,4 18,6 24,2 15,8 46 70 93 1.002 1.016 1.025 OSO 5,7 82,0 128,4
10/2018 8,7 15,9 20,1 19,2 14,4 23,0 28,2 19,5 43 71 88 1.001 1.016 1.027 S 5,6 63,0 95,0
09/2018 16,2 21,2 23,6 24,3 24,3 28,1 32,8 16,6 62 78 89 1.014 1.020 1.029 5,2 59,6 53,8
08/2018 20,5 23,5 27,4 27,3 25,7 31,6 37,2 16,7 45 69 83 1.014 1.018 1.023 6,4 50,0 55,8
07/2018 20,9 23,1 25,3 27,2 27,2 31,6 35,7 14,8 39 66 88 1.011 1.016 1.021 7,7 50,0 1,2
06/2018 15,3 19,6 22,4 23,7 23,2 28,2 32,7 17,4 46 62 80 1.011 1.016 1.022 6,8 48,3 32,8
05/2018 9,5 15,2 18,0 19,2 16,8 23,8 28,3 18,8 43 66 82 1.011 1.016 1.019 6,2 46,7 8,4
04/2018 8,8 12,9 16,3 16,4 14,1 20,3 27,0 18,2 8,4 79,5 11,6
Tots els anys disponibles
2018 3,8 15,3 27,4 18,9 7,7 23,0 37,2 33,4 37 68 93 999 1.018 1.032 SSE 6,6 82,0 590,6
2017 4,7 12,6 19,2 16,2 11,6 20,3 28,9 24,2 60 60 60 1.015 1.015 1.015 5,3 72,2 56,0
Temperatura (°C)
Humitat relativa (%)
Velocitat del vent i ràfega màxima (km/h)
Direcció del vent (°)
Pressió (hPa)
Precipitació (mm)
Nota sobre les dades: s'avisa a l'usuari de la provisionalitat i no oficialitat d'aquestes dades
Logo AVAMET blanc
Web allotjada a Sollutia
Llicència de Creative CommonsLa web d'AVAMET i els seus continguts estan subjectes a una llicència de
Reconeixement - No Comercial - Compartir igual
Properes estacions: Altea - Club Nàutic d'Altea (Soci), Ontinyent - El Pilar (Soci), Ares del Maestrat (Ajuntament Soci), Catadau - L'Altet (Inforatge)     - - - - -      Últimes estacions: Asp - Poliesportiu (Soci), Jacarilla - centro (MeteOrihuela), Elx - Maitino/Vallverda/Velarde/Matola/Ferriol (Soci TiempoElche.com), Orihuela - Playa Flamenca (MeteOrihuela), - - -